Time;durP1;ratioP1;P1;durP2;ratioP2;P2;SDS_P1;SDS_P2;PMS_P1;PMS_P2;Temp;Humidity;BMP_temperature;BMP_pressure;BME280_temperature;BME280_humidity;BME280_pressure;Samples;Min_cycle;Max_cycle;Signal;HPM_P1;HPM_P2
2023/04/04 00:01:10;;;;;;;8.50;7.30;;;;;;;11.88;66.67;101416.55;110098;1272;22188;-49
2023/04/04 00:03:42;;;;;;;7.50;6.80;;;;;;;11.87;66.71;101413.42;110333;1271;22722;-51
2023/04/04 00:06:11;;;;;;;10.10;6.90;;;;;;;11.87;66.84;101406.48;110342;1278;22172;-49
2023/04/04 00:08:39;;;;;;;7.10;6.40;;;;;;;11.90;66.91;101406.44;109575;1270;1002662;-50
2023/04/04 00:11:15;;;;;;;7.10;6.40;;;;;;;11.93;66.83;101401.16;110076;1272;334665;-50
2023/04/04 00:13:44;;;;;;;6.70;5.80;;;;;;;11.95;66.76;101398.34;110316;1277;22150;-50
2023/04/04 00:16:12;;;;;;;6.80;5.80;;;;;;;11.98;66.70;101396.89;110056;1274;22287;-50
2023/04/04 00:18:41;;;;;;;7.60;6.50;;;;;;;12.00;66.45;101403.48;110133;1277;22525;-50
2023/04/04 00:21:10;;;;;;;6.60;5.90;;;;;;;12.02;66.42;101401.36;110310;1275;22365;-49
2023/04/04 00:23:38;;;;;;;6.60;5.90;;;;;;;12.05;66.31;101400.25;110330;1274;22955;-49
2023/04/04 00:26:06;;;;;;;7.10;6.20;;;;;;;12.08;66.17;101401.76;110344;1271;22287;-49
2023/04/04 00:28:35;;;;;;;7.10;6.40;;;;;;;12.08;65.97;101403.16;110317;1277;22977;-50
2023/04/04 00:31:03;;;;;;;7.20;6.10;;;;;;;12.05;65.97;101397.30;110059;1276;22131;-50
2023/04/04 00:33:33;;;;;;;7.00;6.30;;;;;;;12.03;66.03;101393.67;110299;1277;22200;-51
2023/04/04 00:36:01;;;;;;;8.00;6.70;;;;;;;12.03;66.09;101387.26;110289;1275;22165;-49
2023/04/04 00:38:30;;;;;;;6.70;6.10;;;;;;;12.02;66.17;101390.56;110293;1278;22129;-49
2023/04/04 00:40:58;;;;;;;6.90;6.20;;;;;;;12.01;66.26;101391.45;110345;1272;22113;-50
2023/04/04 00:43:27;;;;;;;7.50;6.80;;;;;;;12.01;66.34;101391.62;109985;1277;22963;-50
2023/04/04 00:45:55;;;;;;;7.30;6.40;;;;;;;11.98;66.34;101400.55;110149;1280;22218;-49
2023/04/04 00:48:23;;;;;;;6.70;6.00;;;;;;;11.99;66.13;101399.65;109962;1278;22968;-50
2023/04/04 00:50:52;;;;;;;7.50;6.00;;;;;;;12.00;66.17;101399.45;109328;1280;1002534;-50
2023/04/04 00:53:20;;;;;;;5.90;5.40;;;;;;;11.99;66.20;101397.41;110085;1273;22886;-50
2023/04/04 00:55:49;;;;;;;5.50;5.00;;;;;;;11.99;66.21;101395.48;110095;1272;22142;-50
2023/04/04 00:58:18;;;;;;;5.50;5.00;;;;;;;11.98;66.01;101397.59;110093;1272;23188;-50
2023/04/04 01:00:47;;;;;;;6.10;5.50;;;;;;;11.98;66.06;101394.98;109987;1280;22349;-49
2023/04/04 01:03:23;;;;;;;5.90;5.40;;;;;;;11.97;66.07;101389.96;110101;1276;23140;-50
2023/04/04 01:05:54;;;;;;;6.60;5.80;;;;;;;11.96;66.16;101391.54;110115;1273;22371;-51
2023/04/04 01:08:24;;;;;;;6.80;6.20;;;;;;;11.95;66.01;101394.70;110185;1273;22163;-49
2023/04/04 01:10:53;;;;;;;6.20;5.60;;;;;;;11.94;66.02;101396.97;109886;1280;22519;-49
2023/04/04 01:13:22;;;;;;;5.80;5.00;;;;;;;11.92;65.98;101399.43;110100;1277;23242;-50
2023/04/04 01:15:50;;;;;;;6.50;5.70;;;;;;;11.92;66.01;101402.74;110132;1272;22353;-49
2023/04/04 01:18:20;;;;;;;5.70;5.20;;;;;;;11.93;66.01;101409.16;110131;1276;22440;-49
2023/04/04 01:21:01;;;;;;;6.30;5.70;;;;;;;11.91;65.86;101410.23;109207;1282;1002599;-50
2023/04/04 01:23:56;;;;;;;5.60;5.00;;;;;;;11.89;65.83;101405.40;109994;1280;22929;-49
2023/04/04 01:26:28;;;;;;;6.90;5.90;;;;;;;11.87;65.71;101386.33;109983;1277;22170;-49
2023/04/04 01:29:00;;;;;;;6.10;5.50;;;;;;;11.83;65.70;101378.23;110001;1280;23040;-50
2023/04/04 01:31:36;;;;;;;5.90;5.20;;;;;;;11.77;65.85;101369.09;110022;1275;22967;-50
2023/04/04 01:34:30;;;;;;;5.90;5.30;;;;;;;11.75;65.90;101363.39;109985;1280;22829;-49
2023/04/04 01:37:33;;;;;;;5.90;5.20;;;;;;;11.73;66.01;101360.48;110045;1280;22395;-49
2023/04/04 01:40:27;;;;;;;6.00;5.40;;;;;;;11.71;66.10;101363.98;109923;1276;22171;-50
2023/04/04 01:42:56;;;;;;;5.80;5.10;;;;;;;11.69;66.29;101372.20;109690;1281;23070;-50
2023/04/04 01:45:25;;;;;;;6.80;6.10;;;;;;;11.68;66.20;101374.83;109599;1287;22888;-50
2023/04/04 01:47:55;;;;;;;5.80;5.20;;;;;;;11.66;66.21;101375.88;109629;1281;22987;-50
2023/04/04 01:50:25;;;;;;;5.60;5.00;;;;;;;11.65;66.19;101381.77;109606;1283;22168;-50
2023/04/04 01:52:53;;;;;;;5.10;4.70;;;;;;;11.64;66.27;101383.36;109688;1281;22411;-49
2023/04/04 01:55:23;;;;;;;5.90;5.30;;;;;;;11.63;66.14;101385.13;109824;1278;22959;-50
2023/04/04 01:57:52;;;;;;;5.30;4.80;;;;;;;11.61;66.15;101383.40;109673;1278;23022;-51
2023/04/04 02:00:26;;;;;;;4.80;4.40;;;;;;;11.60;66.14;101384.48;109567;1285;22182;-50
2023/04/04 02:02:55;;;;;;;5.20;4.70;;;;;;;11.59;66.28;101388.48;109058;1285;1002424;-50
2023/04/04 02:05:23;;;;;;;5.30;4.80;;;;;;;11.60;66.20;101389.68;109673;1281;22391;-50
2023/04/04 02:07:52;;;;;;;6.30;5.00;;;;;;;11.60;65.93;101391.08;109013;1281;1002398;-50
2023/04/04 02:10:25;;;;;;;5.80;5.30;;;;;;;11.58;65.86;101397.19;109786;1279;22171;-49
2023/04/04 02:12:54;;;;;;;5.50;5.00;;;;;;;11.56;65.93;101396.71;109613;1285;22331;-49
2023/04/04 02:15:23;;;;;;;5.30;4.80;;;;;;;11.56;66.00;101397.73;109844;1279;22161;-50
2023/04/04 02:17:53;;;;;;;5.90;5.30;;;;;;;11.58;65.95;101395.64;109888;1276;22403;-50
2023/04/04 02:20:21;;;;;;;5.50;5.00;;;;;;;11.57;65.91;101392.67;110077;1275;22307;-50
2023/04/04 02:22:53;;;;;;;5.50;5.00;;;;;;;11.57;65.87;101389.91;110331;1270;23159;-49
2023/04/04 02:25:23;;;;;;;4.90;4.50;;;;;;;11.56;65.83;101388.02;110306;1271;22324;-50
2023/04/04 02:27:52;;;;;;;5.20;4.70;;;;;;;11.56;65.79;101387.65;110291;1278;22285;-50
2023/04/04 02:30:21;;;;;;;5.40;4.90;;;;;;;11.56;65.74;101397.92;110355;1271;22354;-50
2023/04/04 02:32:51;;;;;;;6.00;5.00;;;;;;;11.55;65.78;101401.23;109569;1270;1002437;-49
2023/04/04 02:35:20;;;;;;;5.80;5.20;;;;;;;11.54;65.67;101401.08;110162;1277;22993;-50
2023/04/04 02:37:49;;;;;;;4.90;4.50;;;;;;;11.54;65.66;101396.40;110071;1275;22147;-50
2023/04/04 02:40:24;;;;;;;5.50;5.00;;;;;;;11.55;65.62;101392.20;110069;1279;22447;-49
2023/04/04 02:42:53;;;;;;;5.20;4.70;;;;;;;11.55;65.70;101392.20;110161;1273;22202;-49
2023/04/04 02:45:21;;;;;;;5.10;4.60;;;;;;;11.56;65.70;101401.04;110016;1280;22171;-49
2023/04/04 02:47:57;;;;;;;5.30;4.80;;;;;;;11.57;65.58;101398.41;109304;1279;1002704;-49
2023/04/04 02:50:29;;;;;;;4.70;4.30;;;;;;;11.57;65.47;101397.38;110054;1277;22841;-50
2023/04/04 02:53:03;;;;;;;5.00;4.50;;;;;;;11.57;65.45;101397.37;110133;1272;22308;-49
2023/04/04 02:55:33;;;;;;;4.80;4.40;;;;;;;11.56;65.37;101395.30;110007;1275;22354;-49
2023/04/04 02:58:02;;;;;;;5.50;5.00;;;;;;;11.56;65.43;101386.80;110125;1276;22855;-50
2023/04/04 03:00:32;;;;;;;4.90;4.40;;;;;;;11.55;65.48;101379.16;109972;1280;22224;-50
2023/04/04 03:03:00;;;;;;;5.40;5.00;;;;;;;11.50;65.49;101366.39;110122;1272;22906;-49
2023/04/04 03:05:35;;;;;;;5.30;4.80;;;;;;;11.51;65.28;101362.20;110004;1277;22142;-49
2023/04/04 03:08:06;;;;;;;5.20;4.70;;;;;;;11.53;65.10;101355.05;110221;1272;22320;-49
2023/04/04 03:10:35;;;;;;;5.80;5.00;;;;;;;11.49;65.15;101351.45;110315;1271;22348;-49
2023/04/04 03:13:03;;;;;;;5.50;5.00;;;;;;;11.47;65.05;101355.84;110309;1273;22266;-50
2023/04/04 03:15:33;;;;;;;5.20;4.70;;;;;;;11.44;65.21;101356.39;110312;1271;22120;-50
2023/04/04 03:18:02;;;;;;;5.60;5.10;;;;;;;11.42;65.33;101352.42;109570;1272;1003115;-49
2023/04/04 03:20:32;;;;;;;5.70;5.20;;;;;;;11.42;65.32;101349.14;110086;1275;22417;-49
2023/04/04 03:23:01;;;;;;;5.40;4.90;;;;;;;11.40;65.39;101342.38;110277;1275;22188;-49
2023/04/04 03:25:30;;;;;;;5.30;4.80;;;;;;;11.39;65.44;101338.93;110309;1272;22287;-49
2023/04/04 03:28:07;;;;;;;5.30;4.80;;;;;;;11.39;65.50;101333.20;110215;1272;22112;-49
2023/04/04 03:30:35;;;;;;;6.30;5.70;;;;;;;11.40;65.59;101323.28;110328;1278;22119;-49
2023/04/04 03:33:08;;;;;;;5.40;4.90;;;;;;;11.41;65.67;101309.89;109532;1275;1002498;-49
2023/04/04 03:35:38;;;;;;;6.70;5.70;;;;;;;11.41;65.59;101305.55;110090;1270;23150;-49
2023/04/04 03:38:11;;;;;;;5.70;5.20;;;;;;;11.40;65.58;101300.69;110307;1275;22924;-49
2023/04/04 03:40:40;;;;;;;6.00;5.40;;;;;;;11.38;65.63;101293.61;109551;1273;1002116;-50
2023/04/04 03:43:12;;;;;;;5.80;5.30;;;;;;;11.37;65.76;101276.41;110142;1273;22400;-49
2023/04/04 03:45:41;;;;;;;6.00;5.40;;;;;;;11.37;65.92;101265.12;110176;1273;22235;-49
2023/04/04 03:48:10;;;;;;;6.40;5.80;;;;;;;11.37;65.88;101253.65;109982;1271;22329;-50
2023/04/04 03:50:40;;;;;;;6.10;5.60;;;;;;;11.37;66.01;101248.61;110297;1278;23041;-50
2023/04/04 03:53:11;;;;;;;6.40;5.80;;;;;;;11.38;66.13;101238.71;110095;1273;23282;-50
2023/04/04 03:55:44;;;;;;;6.30;5.70;;;;;;;11.38;66.00;101220.83;110126;1273;22316;-50
2023/04/04 03:58:14;;;;;;;7.00;6.30;;;;;;;11.37;65.97;101217.52;109255;1276;1002796;-50
2023/04/04 04:00:42;;;;;;;6.80;6.20;;;;;;;11.36;66.03;101210.42;109200;1279;1003051;-50
2023/04/04 04:03:15;;;;;;;7.30;6.60;;;;;;;11.36;65.93;101186.29;110085;1278;22314;-49
2023/04/04 04:05:46;;;;;;;9.20;7.60;;;;;;;11.36;65.88;101164.23;110038;1280;22144;-50
2023/04/04 04:08:15;;;;;;;9.00;6.80;;;;;;;11.32;66.10;101161.70;110029;1276;22424;-49
2023/04/04 04:10:53;;;;;;;7.80;7.00;;;;;;;11.31;66.25;101191.59;110130;1272;22182;-50
2023/04/04 04:13:22;;;;;;;7.70;6.90;;;;;;;11.31;66.49;101237.61;109958;1280;22370;-50
2023/04/04 04:15:53;;;;;;;7.60;6.90;;;;;;;11.35;66.50;101278.73;110099;1275;22167;-49
2023/04/04 04:18:24;;;;;;;7.20;6.50;;;;;;;11.40;66.65;101295.13;110086;1276;22194;-49
2023/04/04 04:20:57;;;;;;;7.80;7.10;;;;;;;11.46;66.56;101298.87;110129;1279;22386;-50
2023/04/04 04:23:28;;;;;;;6.80;6.10;;;;;;;11.49;66.49;101294.99;110072;1273;22314;-50
2023/04/04 04:25:58;;;;;;;7.50;6.80;;;;;;;11.53;66.46;101291.64;110013;1273;22479;-49
2023/04/04 04:28:29;;;;;;;7.70;6.70;;;;;;;11.57;66.43;101288.27;109545;1270;1002441;-50
2023/04/04 04:31:08;;;;;;;8.90;7.50;;;;;;;11.60;66.43;101289.25;110408;1270;22372;-50
2023/04/04 04:33:41;;;;;;;6.20;5.70;;;;;;;11.64;66.35;101293.17;109559;1273;1002746;-50
2023/04/04 04:36:10;;;;;;;6.90;6.20;;;;;;;11.67;66.08;101289.31;110057;1270;22766;-51
2023/04/04 04:38:49;;;;;;;7.20;6.50;;;;;;;11.69;65.88;101291.38;110310;1277;23025;-51
2023/04/04 04:41:18;;;;;;;7.10;6.40;;;;;;;11.70;65.73;101287.02;110229;1271;22331;-50
2023/04/04 04:43:49;;;;;;;7.20;6.50;;;;;;;11.71;65.75;101288.04;110405;1276;23161;-50
2023/04/04 04:46:17;;;;;;;7.80;7.10;;;;;;;11.73;65.67;101287.14;109367;1278;1006938;-50
2023/04/04 04:48:47;;;;;;;7.60;6.90;;;;;;;11.72;65.50;101291.67;110308;1275;22171;-49
2023/04/04 04:51:16;;;;;;;7.90;7.10;;;;;;;11.73;65.46;101289.73;110193;1278;22273;-50
2023/04/04 04:53:50;;;;;;;8.00;7.30;;;;;;;11.73;65.53;101287.48;110099;1278;22389;-50
2023/04/04 04:56:19;;;;;;;7.10;6.50;;;;;;;11.74;65.55;101289.55;110276;1277;22440;-49
2023/04/04 04:58:49;;;;;;;7.40;6.80;;;;;;;11.75;65.46;101289.71;110301;1270;22465;-49
2023/04/04 05:01:33;;;;;;;8.20;7.40;;;;;;;11.76;65.45;101282.39;109556;1272;1002774;-49
2023/04/04 05:04:02;;;;;;;8.50;7.00;;;;;;;11.75;65.29;101286.04;110372;1278;22180;-50
2023/04/04 05:06:37;;;;;;;7.30;6.60;;;;;;;11.76;65.35;101294.38;110188;1273;22305;-50
2023/04/04 05:09:13;;;;;;;7.90;7.20;;;;;;;11.77;65.48;101300.08;110267;1278;22882;-49
2023/04/04 05:11:46;;;;;;;7.80;7.10;;;;;;;11.80;65.33;101294.83;110374;1270;22251;-49
2023/04/04 05:14:14;;;;;;;9.30;7.40;;;;;;;11.82;65.35;101292.00;110168;1278;22129;-50
2023/04/04 05:16:57;;;;;;;8.10;7.30;;;;;;;11.84;65.20;101291.62;110305;1272;22130;-50
2023/04/04 05:19:28;;;;;;;7.70;7.10;;;;;;;11.85;65.13;101292.64;110180;1274;22360;-50
2023/04/04 05:21:57;;;;;;;8.20;7.40;;;;;;;11.86;65.12;101286.73;109462;1273;1002636;-49
2023/04/04 05:24:42;;;;;;;8.30;7.40;;;;;;;11.87;65.19;101290.02;110059;1270;22135;-50
2023/04/04 05:27:12;;;;;;;9.20;7.50;;;;;;;11.89;65.31;101292.92;110288;1270;22361;-49
2023/04/04 05:29:46;;;;;;;10.40;9.20;;;;;;;11.92;65.17;101297.55;110401;1275;22142;-50
2023/04/04 05:32:18;;;;;;;9.80;8.90;;;;;;;11.96;65.21;101291.23;110160;1275;22847;-49
2023/04/04 05:34:52;;;;;;;8.90;8.10;;;;;;;11.97;65.08;101289.46;110340;1276;22776;-50
2023/04/04 05:37:22;;;;;;;8.80;7.90;;;;;;;11.99;65.11;101286.80;110264;1276;22107;-49
2023/04/04 05:39:52;;;;;;;9.20;8.20;;;;;;;12.02;64.94;101285.71;110044;1275;22112;-49
2023/04/04 05:42:22;;;;;;;9.60;8.70;;;;;;;12.04;65.01;101287.23;110072;1270;22629;-50
2023/04/04 05:44:51;;;;;;;9.90;8.40;;;;;;;12.06;64.92;101287.36;110296;1273;22289;-49
2023/04/04 05:47:21;;;;;;;9.10;8.20;;;;;;;12.10;64.95;101282.77;110034;1271;22312;-49
2023/04/04 05:49:50;;;;;;;9.90;9.00;;;;;;;12.12;65.00;101281.85;110180;1270;22134;-49
2023/04/04 05:52:19;;;;;;;10.80;9.40;;;;;;;12.15;64.87;101286.67;109494;1272;1002664;-49
2023/04/04 05:54:50;;;;;;;10.70;9.50;;;;;;;12.16;64.71;101283.17;109445;1277;1002469;-49
2023/04/04 05:57:25;;;;;;;9.90;8.90;;;;;;;12.17;64.49;101285.94;110249;1270;23160;-49
2023/04/04 05:59:58;;;;;;;10.00;9.00;;;;;;;12.18;64.61;101284.00;109421;1270;1002275;-49
2023/04/04 06:02:28;;;;;;;10.00;8.70;;;;;;;12.19;64.62;101288.67;110313;1270;22398;-50
2023/04/04 06:05:01;;;;;;;11.60;8.40;;;;;;;12.23;64.54;101291.73;110256;1277;22338;-50
2023/04/04 06:07:36;;;;;;;12.40;9.40;;;;;;;12.26;64.42;101291.85;110389;1278;22106;-49
2023/04/04 06:10:06;;;;;;;10.50;9.40;;;;;;;12.27;64.30;101297.05;110356;1270;22109;-50
2023/04/04 06:12:35;;;;;;;;;;;;;;;12.26;64.22;101302.12;110075;1272;22607;-50
2023/04/04 06:15:10;;;;;;;10.20;9.20;;;;;;;12.25;64.25;101303.70;110315;1270;22130;-49
2023/04/04 06:17:40;;;;;;;10.70;9.60;;;;;;;12.24;64.33;101300.42;110277;1270;22197;-48
2023/04/04 06:20:09;;;;;;;11.70;9.60;;;;;;;12.23;64.37;101296.08;109539;1272;1002992;-49
2023/04/04 06:22:38;;;;;;;10.60;9.50;;;;;;;12.23;64.41;101301.30;110120;1274;22765;-49
2023/04/04 06:25:09;;;;;;;10.40;9.30;;;;;;;12.25;64.45;101302.14;110280;1270;22312;-49
2023/04/04 06:27:39;;;;;;;9.50;8.40;;;;;;;12.25;64.49;101301.26;110070;1273;22186;-50
2023/04/04 06:30:08;;;;;;;10.00;9.00;;;;;;;12.26;64.48;101302.80;109299;1273;1002121;-50
2023/04/04 06:32:43;;;;;;;9.30;8.40;;;;;;;12.27;64.51;101300.01;110312;1273;22179;-49
2023/04/04 06:35:16;;;;;;;9.10;7.60;;;;;;;12.29;64.48;101295.45;110138;1273;22940;-49
2023/04/04 06:37:55;;;;;;;8.20;7.40;;;;;;;12.29;64.48;101294.91;109292;1280;1002405;-49
2023/04/04 06:40:26;;;;;;;7.80;7.00;;;;;;;12.30;64.45;101291.60;110047;1279;22164;-49
2023/04/04 06:42:57;;;;;;;9.70;7.50;;;;;;;12.31;64.44;101292.44;110049;1272;23009;-50
2023/04/04 06:45:37;;;;;;;8.30;7.20;;;;;;;12.33;64.40;101291.52;110083;1279;22234;-50
2023/04/04 06:48:06;;;;;;;12.60;7.30;;;;;;;12.34;64.48;101292.74;110061;1272;22850;-49
2023/04/04 06:50:35;;;;;;;9.20;7.50;;;;;;;12.36;64.61;101295.48;110081;1273;22470;-49
2023/04/04 06:53:08;;;;;;;8.30;7.20;;;;;;;12.38;64.46;101294.39;110031;1273;22472;-49
2023/04/04 06:55:36;;;;;;;8.30;7.50;;;;;;;12.39;64.53;101290.36;110018;1280;22318;-49
2023/04/04 06:58:07;;;;;;;8.60;7.40;;;;;;;12.41;64.52;101286.67;110076;1273;22347;-50
2023/04/04 07:00:36;;;;;;;11.00;7.60;;;;;;;12.42;64.50;101285.42;110052;1273;22305;-49
2023/04/04 07:03:05;;;;;;;8.30;6.90;;;;;;;12.43;64.44;101282.63;110144;1272;22304;-50
2023/04/04 07:05:38;;;;;;;9.50;7.20;;;;;;;12.43;64.34;101276.36;109247;1276;1002336;-50
2023/04/04 07:08:07;;;;;;;8.70;7.60;;;;;;;12.40;64.31;101268.23;110079;1275;22145;-50
2023/04/04 07:10:36;;;;;;;8.40;7.50;;;;;;;12.38;64.36;101265.51;110203;1273;22291;-49
2023/04/04 07:13:08;;;;;;;9.00;7.80;;;;;;;12.37;64.37;101261.17;109608;1270;1002626;-49
2023/04/04 07:15:37;;;;;;;9.80;8.30;;;;;;;12.36;64.51;101257.36;109940;1277;22316;-50
2023/04/04 07:18:07;;;;;;;10.10;8.30;;;;;;;12.39;64.54;101249.83;110314;1278;23257;-49
2023/04/04 07:20:36;;;;;;;11.10;8.50;;;;;;;12.40;64.54;101250.85;110313;1278;22122;-49
2023/04/04 07:23:05;;;;;;;10.60;7.90;;;;;;;12.40;64.45;101248.58;109528;1275;1002921;-50
2023/04/04 07:25:33;;;;;;;9.30;7.60;;;;;;;12.38;64.58;101251.06;109580;1277;1002551;-49
2023/04/04 07:28:01;;;;;;;11.60;8.90;;;;;;;12.37;64.64;101247.41;110316;1277;22103;-49
2023/04/04 07:30:41;;;;;;;9.80;7.20;;;;;;;12.37;64.65;101240.28;110032;1273;22350;-50
2023/04/04 07:33:10;;;;;;;9.60;7.70;;;;;;;12.38;64.80;101236.27;110321;1278;22138;-49
2023/04/04 07:35:39;;;;;;;12.50;8.80;;;;;;;12.41;64.92;101230.48;109535;1277;1003192;-50
2023/04/04 07:38:16;;;;;;;9.00;8.00;;;;;;;12.44;64.95;101227.27;110319;1270;22392;-50
2023/04/04 07:40:45;;;;;;;13.70;7.90;;;;;;;12.47;64.88;101227.89;109909;1280;22249;-50
2023/04/04 07:43:13;;;;;;;8.50;7.10;;;;;;;12.50;64.86;101223.84;110062;1274;22353;-49
2023/04/04 07:45:42;;;;;;;8.60;7.60;;;;;;;12.53;64.83;101215.59;109995;1275;22179;-50
2023/04/04 07:48:11;;;;;;;8.90;7.60;;;;;;;12.56;64.69;101205.95;109986;1281;22295;-50
2023/04/04 07:50:41;;;;;;;10.60;7.60;;;;;;;12.56;64.76;101206.98;109257;1280;1002719;-49
2023/04/04 07:53:09;;;;;;;8.60;7.80;;;;;;;12.59;64.72;101211.09;109905;1276;22835;-50
2023/04/04 07:55:37;;;;;;;9.00;7.40;;;;;;;12.61;64.79;101217.48;110029;1274;22380;-49
2023/04/04 07:58:06;;;;;;;8.80;7.80;;;;;;;12.65;64.86;101220.35;109933;1276;22352;-50
2023/04/04 08:00:34;;;;;;;11.90;8.70;;;;;;;12.70;64.72;101215.19;110004;1281;22325;-49
2023/04/04 08:03:24;;;;;;;9.40;7.70;;;;;;;12.73;64.64;101210.61;110026;1281;22862;-49
2023/04/04 08:05:54;;;;;;;11.60;8.40;;;;;;;12.76;64.59;101203.56;110003;1274;22302;-49
2023/04/04 08:08:23;;;;;;;9.70;7.60;;;;;;;12.77;64.56;101206.49;110021;1273;22592;-50
2023/04/04 08:10:54;;;;;;;9.80;8.00;;;;;;;12.79;64.58;101209.23;110054;1278;22453;-49
2023/04/04 08:13:23;;;;;;;8.40;7.40;;;;;;;12.80;64.61;101206.41;110335;1272;22796;-49
2023/04/04 08:15:52;;;;;;;10.90;8.30;;;;;;;12.82;64.49;101203.75;110306;1271;23080;-49
2023/04/04 08:18:22;;;;;;;10.60;8.00;;;;;;;12.82;64.41;101203.39;110298;1270;22663;-50
2023/04/04 08:20:51;;;;;;;10.40;8.70;;;;;;;12.83;64.44;101195.73;109307;1272;1003000;-50
2023/04/04 08:23:19;;;;;;;11.60;8.70;;;;;;;12.84;64.46;101192.40;110322;1270;22891;-49
2023/04/04 08:25:47;;;;;;;12.30;8.50;;;;;;;12.84;64.43;101183.52;110335;1275;22892;-50
2023/04/04 08:28:16;;;;;;;12.00;9.70;;;;;;;12.84;64.66;101182.63;110320;1270;22121;-50
2023/04/04 08:30:48;;;;;;;10.60;9.30;;;;;;;12.85;64.75;101180.54;110334;1270;22268;-50
2023/04/04 08:33:19;;;;;;;10.00;8.70;;;;;;;12.87;64.80;101179.78;110351;1270;22142;-50
2023/04/04 08:35:47;;;;;;;9.80;8.80;;;;;;;12.89;64.91;101165.98;110085;1273;22123;-49
2023/04/04 08:38:18;;;;;;;13.00;9.50;;;;;;;12.90;64.97;101147.67;110308;1272;23011;-50
2023/04/04 08:40:46;;;;;;;11.80;9.20;;;;;;;12.89;64.89;101131.33;110321;1278;22966;-50
2023/04/04 08:43:18;;;;;;;11.10;9.10;;;;;;;12.84;65.03;101123.45;110326;1270;23083;-50
2023/04/04 08:45:46;;;;;;;10.80;9.50;;;;;;;12.79;65.17;101129.33;110357;1271;22273;-50
2023/04/04 08:48:15;;;;;;;9.60;8.60;;;;;;;12.73;65.25;101136.08;110020;1271;22149;-50
2023/04/04 08:50:44;;;;;;;9.90;8.60;;;;;;;12.71;65.46;101131.61;110279;1277;22330;-50
2023/04/04 08:53:12;;;;;;;11.00;9.20;;;;;;;12.67;65.63;101139.89;109586;1272;1002346;-50
2023/04/04 08:55:41;;;;;;;14.60;10.80;;;;;;;12.62;65.90;101147.84;109254;1270;1003014;-50
2023/04/04 08:58:09;;;;;;;10.40;9.30;;;;;;;12.55;66.17;101154.12;109340;1277;1002574;-50
2023/04/04 09:04:12;;;;;;;11.60;9.70;;;;;;;12.24;67.87;101154.30;105078;1294;557933;-48
2023/04/04 09:06:40;;;;;;;11.80;10.50;;;;;;;12.49;67.26;101160.48;105880;1282;25413;-50
2023/04/04 09:09:07;;;;;;;11.30;10.10;;;;;;;12.54;67.15;101163.52;106175;1287;22541;-49
2023/04/04 09:11:35;;;;;;;11.40;10.30;;;;;;;12.57;67.20;101162.58;106354;1281;25417;-50
2023/04/04 09:14:03;;;;;;;11.20;9.70;;;;;;;12.61;67.15;101158.32;106339;1273;25387;-49
2023/04/04 09:16:30;;;;;;;12.70;10.30;;;;;;;12.63;66.96;101158.95;105385;1275;1003829;-49
2023/04/04 09:18:58;;;;;;;12.20;10.20;;;;;;;12.65;66.92;101156.98;105359;1282;1003503;-49
2023/04/04 09:21:26;;;;;;;12.50;10.20;;;;;;;12.67;66.84;101151.02;106529;1279;23489;-48
2023/04/04 09:23:58;;;;;;;11.80;10.60;;;;;;;12.69;66.79;101154.11;106196;1272;1002570;-48
2023/04/04 09:26:26;;;;;;;12.70;10.90;;;;;;;12.73;66.81;101148.45;106510;1280;22549;-48
2023/04/04 09:28:53;;;;;;;12.80;11.00;;;;;;;12.77;66.79;101145.57;106740;1272;25303;-49
2023/04/04 09:31:20;;;;;;;14.00;12.40;;;;;;;12.82;66.80;101145.61;106744;1270;23359;-48
2023/04/04 09:33:47;;;;;;;13.20;11.80;;;;;;;12.87;66.65;101142.52;106361;1278;22540;-50
2023/04/04 09:36:15;;;;;;;13.00;11.60;;;;;;;12.94;66.49;101138.69;106203;1276;24216;-50
2023/04/04 09:38:47;;;;;;;13.30;11.80;;;;;;;13.00;66.47;101133.30;105636;1278;1003651;-50
2023/04/04 09:41:15;;;;;;;13.60;12.30;;;;;;;13.07;66.21;101121.31;106575;1277;25558;-49
2023/04/04 09:43:46;;;;;;;13.00;11.60;;;;;;;13.14;65.99;101117.30;106371;1277;25370;-48
2023/04/04 09:46:14;;;;;;;12.90;11.50;;;;;;;13.20;65.91;101109.50;106636;1278;22545;-49
2023/04/04 09:48:41;;;;;;;19.10;11.50;;;;;;;13.26;65.88;101098.51;106224;1277;25353;-48
2023/04/04 09:51:11;;;;;;;13.10;11.80;;;;;;;13.33;65.62;101092.56;106323;1282;25422;-48
2023/04/04 09:53:40;;;;;;;12.90;11.60;;;;;;;13.40;65.46;101096.73;106069;1273;25452;-50
2023/04/04 09:56:08;;;;;;;12.30;11.00;;;;;;;13.45;65.27;101102.00;106211;1277;22607;-49
2023/04/04 09:58:35;;;;;;;13.30;11.90;;;;;;;13.50;65.06;101102.70;106673;1278;25515;-49
2023/04/04 10:01:08;;;;;;;12.70;11.40;;;;;;;13.55;64.85;101096.64;106586;1273;26649;-49
2023/04/04 10:03:38;;;;;;;14.10;11.20;;;;;;;13.57;64.68;101091.90;106400;1267;22611;-49
2023/04/04 10:06:06;;;;;;;11.40;10.20;;;;;;;13.57;64.61;101091.35;106232;1277;25304;-49
2023/04/04 10:08:42;;;;;;;;;;;;;;;13.61;64.65;101086.73;106092;1282;25398;-50
2023/04/04 10:11:10;;;;;;;12.80;10.80;;;;;;;13.65;64.62;101079.65;106337;1272;22635;-49
2023/04/04 10:13:39;;;;;;;12.30;10.90;;;;;;;13.69;64.47;101078.80;105422;1273;1003245;-48
2023/04/04 10:16:09;;;;;;;13.90;11.30;;;;;;;13.72;64.37;101074.01;106046;1278;25350;-49
2023/04/04 10:18:36;;;;;;;12.10;10.80;;;;;;;13.74;64.41;101075.52;106591;1278;22649;-49
2023/04/04 10:21:07;;;;;;;13.80;11.60;;;;;;;13.78;64.41;101070.50;106358;1278;23410;-48
2023/04/04 10:23:39;;;;;;;12.00;10.80;;;;;;;13.84;64.28;101068.06;106286;1278;26587;-50
2023/04/04 10:26:07;;;;;;;11.70;10.50;;;;;;;13.88;64.35;101060.98;106650;1278;25338;-50
2023/04/04 10:28:43;;;;;;;12.70;11.30;;;;;;;13.94;64.35;101057.98;106366;1279;25542;-48
2023/04/04 10:31:16;;;;;;;14.40;12.90;;;;;;;14.03;64.16;101051.97;106300;1279;22532;-48
2023/04/04 10:33:45;;;;;;;15.40;12.80;;;;;;;14.10;63.98;101054.55;106603;1272;22533;-49
2023/04/04 10:36:15;;;;;;;13.90;11.80;;;;;;;14.16;63.91;101045.79;106258;1278;25345;-49
2023/04/04 10:38:46;;;;;;;12.30;11.10;;;;;;;14.23;63.58;101046.09;106323;1263;24382;-49
2023/04/04 10:41:13;;;;;;;12.80;11.40;;;;;;;14.27;63.34;101038.97;106744;1275;24038;-49
2023/04/04 10:43:41;;;;;;;14.60;12.50;;;;;;;14.28;63.14;101022.38;106367;1273;25405;-49
2023/04/04 10:46:14;;;;;;;14.30;12.40;;;;;;;14.28;62.93;101007.73;106354;1273;25381;-49
2023/04/04 10:48:41;;;;;;;14.70;13.10;;;;;;;14.26;62.87;101000.27;106119;1283;22543;-49
2023/04/04 10:51:12;;;;;;;15.10;12.70;;;;;;;14.23;62.87;100987.96;106496;1273;25920;-49
2023/04/04 10:53:39;;;;;;;15.20;13.60;;;;;;;14.22;62.92;100985.38;106283;1280;25403;-48
2023/04/04 10:56:07;;;;;;;15.50;13.10;;;;;;;14.22;62.93;100975.45;106486;1264;25316;-48
2023/04/04 10:58:41;;;;;;;13.60;12.20;;;;;;;14.23;62.92;100967.73;106308;1282;25398;-48
2023/04/04 11:01:09;;;;;;;13.10;11.70;;;;;;;14.24;62.93;100966.98;106020;1285;25400;-48
2023/04/04 11:04:15;;;;;;;13.10;11.70;;;;;;;14.28;62.72;100954.15;106299;1275;25334;-48
2023/04/04 11:07:05;;;;;;;12.60;11.30;;;;;;;14.31;62.38;100949.87;106658;1262;25400;-50
2023/04/04 11:09:53;;;;;;;12.80;11.20;;;;;;;14.32;62.30;100955.05;106434;1277;22595;-49
2023/04/04 11:12:28;;;;;;;11.10;10.00;;;;;;;14.36;62.27;100957.89;106351;1270;25514;-49
2023/04/04 11:14:56;;;;;;;11.70;10.50;;;;;;;14.43;62.03;100959.23;106454;1278;22528;-49
2023/04/04 11:17:43;;;;;;;14.00;10.60;;;;;;;14.50;61.66;100964.39;106459;1278;25373;-49
2023/04/04 11:20:15;;;;;;;11.80;9.60;;;;;;;14.56;61.24;100974.65;106455;1272;25342;-48
2023/04/04 11:22:44;;;;;;;13.80;10.70;;;;;;;14.60;60.85;100982.71;106392;1278;23181;-48
2023/04/04 11:25:31;;;;;;;12.90;10.70;;;;;;;14.65;60.73;100988.46;106306;1282;25364;-48
2023/04/04 11:28:05;;;;;;;11.70;10.30;;;;;;;14.70;60.54;100988.84;106290;1281;25416;-48
2023/04/04 11:30:58;;;;;;;10.90;9.10;;;;;;;14.77;60.25;100986.48;106341;1282;25430;-48
2023/04/04 11:33:27;;;;;;;11.30;9.60;;;;;;;14.84;59.88;100986.08;105995;1275;25470;-48